sensor_id;sensor_type;location;lat;lon;timestamp;P1;durP1;ratioP1;P2;durP2;ratioP2
18661;SDS011;61528;49.456;11.098;2024-01-10T00:01:58;11.57;;;5.53;;
18661;SDS011;61528;49.456;11.098;2024-01-10T00:04:24;14.93;;;6.07;;
18661;SDS011;61528;49.456;11.098;2024-01-10T00:06:50;10.33;;;5.70;;
18661;SDS011;61528;49.456;11.098;2024-01-10T00:09:15;11.43;;;6.17;;
18661;SDS011;61528;49.456;11.098;2024-01-10T00:11:41;15.60;;;6.10;;
18661;SDS011;61528;49.456;11.098;2024-01-10T00:14:07;12.30;;;5.53;;
18661;SDS011;61528;49.456;11.098;2024-01-10T00:16:34;15.33;;;5.47;;
18661;SDS011;61528;49.456;11.098;2024-01-10T00:19:00;13.80;;;6.43;;
18661;SDS011;61528;49.456;11.098;2024-01-10T00:21:26;12.43;;;5.30;;
18661;SDS011;61528;49.456;11.098;2024-01-10T00:23:52;12.53;;;5.80;;
18661;SDS011;61528;49.456;11.098;2024-01-10T00:26:18;11.43;;;5.87;;
18661;SDS011;61528;49.456;11.098;2024-01-10T00:28:43;15.20;;;6.23;;
18661;SDS011;61528;49.456;11.098;2024-01-10T00:31:11;10.87;;;5.37;;
18661;SDS011;61528;49.456;11.098;2024-01-10T00:33:40;15.10;;;5.97;;
18661;SDS011;61528;49.456;11.098;2024-01-10T00:36:06;12.40;;;5.37;;
18661;SDS011;61528;49.456;11.098;2024-01-10T00:38:32;12.97;;;6.10;;
18661;SDS011;61528;49.456;11.098;2024-01-10T00:40:58;16.90;;;6.57;;
18661;SDS011;61528;49.456;11.098;2024-01-10T00:43:24;13.27;;;6.27;;
18661;SDS011;61528;49.456;11.098;2024-01-10T00:45:50;10.77;;;5.73;;
18661;SDS011;61528;49.456;11.098;2024-01-10T00:48:16;12.57;;;5.10;;
18661;SDS011;61528;49.456;11.098;2024-01-10T00:50:45;11.90;;;5.63;;
18661;SDS011;61528;49.456;11.098;2024-01-10T00:53:11;12.50;;;5.80;;
18661;SDS011;61528;49.456;11.098;2024-01-10T00:55:37;12.83;;;5.47;;
18661;SDS011;61528;49.456;11.098;2024-01-10T00:58:03;14.47;;;5.97;;
18661;SDS011;61528;49.456;11.098;2024-01-10T01:00:31;10.73;;;5.57;;
18661;SDS011;61528;49.456;11.098;2024-01-10T01:02:57;13.53;;;5.87;;
18661;SDS011;61528;49.456;11.098;2024-01-10T01:05:22;12.40;;;6.00;;
18661;SDS011;61528;49.456;11.098;2024-01-10T01:07:48;11.20;;;6.40;;
18661;SDS011;61528;49.456;11.098;2024-01-10T01:10:14;10.20;;;5.53;;
18661;SDS011;61528;49.456;11.098;2024-01-10T01:12:40;12.30;;;5.73;;
18661;SDS011;61528;49.456;11.098;2024-01-10T01:15:07;12.43;;;5.83;;
18661;SDS011;61528;49.456;11.098;2024-01-10T01:17:33;11.67;;;5.80;;
18661;SDS011;61528;49.456;11.098;2024-01-10T01:19:59;13.80;;;5.97;;
18661;SDS011;61528;49.456;11.098;2024-01-10T01:22:26;15.50;;;5.77;;
18661;SDS011;61528;49.456;11.098;2024-01-10T01:24:52;13.90;;;6.00;;
18661;SDS011;61528;49.456;11.098;2024-01-10T01:27:17;13.90;;;5.83;;
18661;SDS011;61528;49.456;11.098;2024-01-10T01:29:43;10.87;;;5.43;;
18661;SDS011;61528;49.456;11.098;2024-01-10T01:32:09;15.13;;;6.93;;
18661;SDS011;61528;49.456;11.098;2024-01-10T01:34:35;12.80;;;5.90;;
18661;SDS011;61528;49.456;11.098;2024-01-10T01:37:00;13.93;;;6.70;;
18661;SDS011;61528;49.456;11.098;2024-01-10T01:39:26;11.97;;;5.83;;
18661;SDS011;61528;49.456;11.098;2024-01-10T01:41:52;12.63;;;6.17;;
18661;SDS011;61528;49.456;11.098;2024-01-10T01:44:18;16.50;;;5.97;;
18661;SDS011;61528;49.456;11.098;2024-01-10T01:46:44;15.13;;;6.10;;
18661;SDS011;61528;49.456;11.098;2024-01-10T01:49:11;10.43;;;5.77;;
18661;SDS011;61528;49.456;11.098;2024-01-10T01:51:37;12.60;;;6.43;;
18661;SDS011;61528;49.456;11.098;2024-01-10T01:54:06;12.10;;;5.53;;
18661;SDS011;61528;49.456;11.098;2024-01-10T01:56:34;11.73;;;6.47;;
18661;SDS011;61528;49.456;11.098;2024-01-10T01:59:01;13.00;;;5.83;;
18661;SDS011;61528;49.456;11.098;2024-01-10T02:01:29;13.10;;;6.07;;
18661;SDS011;61528;49.456;11.098;2024-01-10T02:03:55;12.30;;;5.53;;
18661;SDS011;61528;49.456;11.098;2024-01-10T02:06:21;17.90;;;6.73;;
18661;SDS011;61528;49.456;11.098;2024-01-10T02:08:47;11.77;;;5.50;;
18661;SDS011;61528;49.456;11.098;2024-01-10T02:11:13;12.17;;;5.53;;
18661;SDS011;61528;49.456;11.098;2024-01-10T02:13:39;13.23;;;6.43;;
18661;SDS011;61528;49.456;11.098;2024-01-10T02:16:06;13.43;;;5.97;;
18661;SDS011;61528;49.456;11.098;2024-01-10T02:18:32;16.60;;;7.37;;
18661;SDS011;61528;49.456;11.098;2024-01-10T02:21:00;10.13;;;5.30;;
18661;SDS011;61528;49.456;11.098;2024-01-10T02:23:26;12.33;;;6.10;;
18661;SDS011;61528;49.456;11.098;2024-01-10T02:25:52;16.57;;;6.60;;
18661;SDS011;61528;49.456;11.098;2024-01-10T02:28:18;13.00;;;5.80;;
18661;SDS011;61528;49.456;11.098;2024-01-10T02:30:44;14.17;;;6.63;;
18661;SDS011;61528;49.456;11.098;2024-01-10T02:33:09;14.63;;;5.93;;
18661;SDS011;61528;49.456;11.098;2024-01-10T02:35:35;15.93;;;6.60;;
18661;SDS011;61528;49.456;11.098;2024-01-10T02:38:01;15.47;;;6.30;;
18661;SDS011;61528;49.456;11.098;2024-01-10T02:40:28;15.60;;;6.17;;
18661;SDS011;61528;49.456;11.098;2024-01-10T02:42:53;13.87;;;6.63;;
18661;SDS011;61528;49.456;11.098;2024-01-10T02:45:19;13.67;;;6.23;;
18661;SDS011;61528;49.456;11.098;2024-01-10T02:47:45;13.67;;;6.53;;
18661;SDS011;61528;49.456;11.098;2024-01-10T02:50:11;15.63;;;7.20;;
18661;SDS011;61528;49.456;11.098;2024-01-10T02:52:37;14.30;;;6.27;;
18661;SDS011;61528;49.456;11.098;2024-01-10T02:55:03;13.30;;;6.83;;
18661;SDS011;61528;49.456;11.098;2024-01-10T02:57:29;11.50;;;5.80;;
18661;SDS011;61528;49.456;11.098;2024-01-10T02:59:55;14.77;;;6.77;;
18661;SDS011;61528;49.456;11.098;2024-01-10T03:02:21;15.87;;;6.63;;
18661;SDS011;61528;49.456;11.098;2024-01-10T03:04:49;14.00;;;6.17;;
18661;SDS011;61528;49.456;11.098;2024-01-10T03:07:15;13.23;;;6.37;;
18661;SDS011;61528;49.456;11.098;2024-01-10T03:09:40;15.40;;;6.37;;
18661;SDS011;61528;49.456;11.098;2024-01-10T03:12:06;14.73;;;6.27;;
18661;SDS011;61528;49.456;11.098;2024-01-10T03:14:32;16.57;;;6.10;;
18661;SDS011;61528;49.456;11.098;2024-01-10T03:16:59;11.73;;;6.60;;
18661;SDS011;61528;49.456;11.098;2024-01-10T03:19:25;13.33;;;5.97;;
18661;SDS011;61528;49.456;11.098;2024-01-10T03:21:51;12.50;;;5.60;;
18661;SDS011;61528;49.456;11.098;2024-01-10T03:24:17;12.60;;;6.30;;
18661;SDS011;61528;49.456;11.098;2024-01-10T03:26:43;15.13;;;6.73;;
18661;SDS011;61528;49.456;11.098;2024-01-10T03:29:08;13.87;;;6.53;;
18661;SDS011;61528;49.456;11.098;2024-01-10T03:31:34;14.17;;;6.20;;
18661;SDS011;61528;49.456;11.098;2024-01-10T03:34:00;12.47;;;6.27;;
18661;SDS011;61528;49.456;11.098;2024-01-10T03:36:26;12.17;;;6.30;;
18661;SDS011;61528;49.456;11.098;2024-01-10T03:38:52;13.63;;;6.00;;
18661;SDS011;61528;49.456;11.098;2024-01-10T03:41:18;14.23;;;6.10;;
18661;SDS011;61528;49.456;11.098;2024-01-10T03:43:45;14.37;;;6.00;;
18661;SDS011;61528;49.456;11.098;2024-01-10T03:46:12;9.83;;;5.53;;
18661;SDS011;61528;49.456;11.098;2024-01-10T03:48:38;15.17;;;6.40;;
18661;SDS011;61528;49.456;11.098;2024-01-10T03:51:16;12.97;;;6.20;;
18661;SDS011;61528;49.456;11.098;2024-01-10T03:53:43;15.13;;;6.03;;
18661;SDS011;61528;49.456;11.098;2024-01-10T03:56:09;15.40;;;6.03;;
18661;SDS011;61528;49.456;11.098;2024-01-10T03:58:35;10.97;;;6.23;;
18661;SDS011;61528;49.456;11.098;2024-01-10T04:01:06;10.50;;;5.73;;
18661;SDS011;61528;49.456;11.098;2024-01-10T04:03:33;13.00;;;6.03;;
18661;SDS011;61528;49.456;11.098;2024-01-10T04:06:00;13.50;;;6.53;;
18661;SDS011;61528;49.456;11.098;2024-01-10T04:08:26;13.43;;;6.63;;
18661;SDS011;61528;49.456;11.098;2024-01-10T04:10:52;12.80;;;6.27;;
18661;SDS011;61528;49.456;11.098;2024-01-10T04:13:18;12.13;;;5.20;;
18661;SDS011;61528;49.456;11.098;2024-01-10T04:15:44;14.60;;;5.57;;
18661;SDS011;61528;49.456;11.098;2024-01-10T04:18:10;14.40;;;6.30;;
18661;SDS011;61528;49.456;11.098;2024-01-10T04:20:36;14.60;;;6.30;;
18661;SDS011;61528;49.456;11.098;2024-01-10T04:23:01;14.23;;;6.40;;
18661;SDS011;61528;49.456;11.098;2024-01-10T04:25:27;10.57;;;5.13;;
18661;SDS011;61528;49.456;11.098;2024-01-10T04:27:53;11.50;;;6.03;;
18661;SDS011;61528;49.456;11.098;2024-01-10T04:30:20;11.00;;;6.57;;
18661;SDS011;61528;49.456;11.098;2024-01-10T04:32:47;12.63;;;6.20;;
18661;SDS011;61528;49.456;11.098;2024-01-10T04:35:12;13.47;;;5.70;;
18661;SDS011;61528;49.456;11.098;2024-01-10T04:37:38;11.87;;;5.53;;
18661;SDS011;61528;49.456;11.098;2024-01-10T04:40:04;12.23;;;6.03;;
18661;SDS011;61528;49.456;11.098;2024-01-10T04:42:31;11.87;;;5.57;;
18661;SDS011;61528;49.456;11.098;2024-01-10T04:44:56;13.63;;;5.80;;
18661;SDS011;61528;49.456;11.098;2024-01-10T04:47:22;13.70;;;6.13;;
18661;SDS011;61528;49.456;11.098;2024-01-10T04:49:48;11.93;;;5.67;;
18661;SDS011;61528;49.456;11.098;2024-01-10T04:52:14;10.50;;;5.83;;
18661;SDS011;61528;49.456;11.098;2024-01-10T04:54:40;10.03;;;5.93;;
18661;SDS011;61528;49.456;11.098;2024-01-10T04:57:06;11.20;;;5.77;;
18661;SDS011;61528;49.456;11.098;2024-01-10T04:59:32;13.87;;;6.10;;
18661;SDS011;61528;49.456;11.098;2024-01-10T05:01:58;14.50;;;6.83;;
18661;SDS011;61528;49.456;11.098;2024-01-10T05:04:25;13.63;;;5.83;;
18661;SDS011;61528;49.456;11.098;2024-01-10T05:06:51;15.00;;;7.03;;
18661;SDS011;61528;49.456;11.098;2024-01-10T05:09:17;14.00;;;5.57;;
18661;SDS011;61528;49.456;11.098;2024-01-10T05:11:42;11.70;;;5.60;;
18661;SDS011;61528;49.456;11.098;2024-01-10T05:14:12;13.77;;;7.17;;
18661;SDS011;61528;49.456;11.098;2024-01-10T05:16:38;11.63;;;6.43;;
18661;SDS011;61528;49.456;11.098;2024-01-10T05:19:03;12.90;;;6.13;;
18661;SDS011;61528;49.456;11.098;2024-01-10T05:21:30;13.73;;;6.30;;
18661;SDS011;61528;49.456;11.098;2024-01-10T05:23:57;12.83;;;6.03;;
18661;SDS011;61528;49.456;11.098;2024-01-10T05:26:23;10.53;;;5.30;;
18661;SDS011;61528;49.456;11.098;2024-01-10T05:28:49;10.93;;;5.60;;
18661;SDS011;61528;49.456;11.098;2024-01-10T05:31:14;14.50;;;6.47;;
18661;SDS011;61528;49.456;11.098;2024-01-10T05:33:41;13.27;;;5.77;;
18661;SDS011;61528;49.456;11.098;2024-01-10T05:36:08;11.70;;;6.07;;
18661;SDS011;61528;49.456;11.098;2024-01-10T05:38:37;12.73;;;6.37;;
18661;SDS011;61528;49.456;11.098;2024-01-10T05:41:03;12.03;;;6.23;;
18661;SDS011;61528;49.456;11.098;2024-01-10T05:43:29;16.70;;;6.00;;
18661;SDS011;61528;49.456;11.098;2024-01-10T05:45:54;12.43;;;5.63;;
18661;SDS011;61528;49.456;11.098;2024-01-10T05:48:20;12.10;;;5.73;;
18661;SDS011;61528;49.456;11.098;2024-01-10T05:50:46;12.47;;;6.13;;
18661;SDS011;61528;49.456;11.098;2024-01-10T05:53:12;14.63;;;6.47;;
18661;SDS011;61528;49.456;11.098;2024-01-10T05:55:42;14.10;;;6.03;;
18661;SDS011;61528;49.456;11.098;2024-01-10T05:58:09;12.07;;;6.00;;
18661;SDS011;61528;49.456;11.098;2024-01-10T06:00:35;14.40;;;5.20;;
18661;SDS011;61528;49.456;11.098;2024-01-10T06:03:01;14.33;;;6.20;;
18661;SDS011;61528;49.456;11.098;2024-01-10T06:05:27;11.87;;;6.00;;
18661;SDS011;61528;49.456;11.098;2024-01-10T06:07:53;13.43;;;5.87;;
18661;SDS011;61528;49.456;11.098;2024-01-10T06:10:19;14.13;;;5.80;;
18661;SDS011;61528;49.456;11.098;2024-01-10T06:12:44;11.67;;;5.73;;
18661;SDS011;61528;49.456;11.098;2024-01-10T06:15:10;16.27;;;6.40;;
18661;SDS011;61528;49.456;11.098;2024-01-10T06:17:36;18.60;;;7.10;;
18661;SDS011;61528;49.456;11.098;2024-01-10T06:20:03;16.47;;;6.50;;
18661;SDS011;61528;49.456;11.098;2024-01-10T06:22:29;11.77;;;6.13;;
18661;SDS011;61528;49.456;11.098;2024-01-10T06:24:55;15.50;;;6.90;;
18661;SDS011;61528;49.456;11.098;2024-01-10T06:27:21;13.17;;;6.80;;
18661;SDS011;61528;49.456;11.098;2024-01-10T06:29:46;13.37;;;6.47;;
18661;SDS011;61528;49.456;11.098;2024-01-10T06:32:12;11.67;;;5.90;;
18661;SDS011;61528;49.456;11.098;2024-01-10T06:34:39;10.50;;;6.10;;
18661;SDS011;61528;49.456;11.098;2024-01-10T06:37:05;13.10;;;6.20;;
18661;SDS011;61528;49.456;11.098;2024-01-10T06:39:32;17.97;;;7.10;;
18661;SDS011;61528;49.456;11.098;2024-01-10T06:41:58;13.10;;;6.23;;
18661;SDS011;61528;49.456;11.098;2024-01-10T06:44:24;17.23;;;7.97;;
18661;SDS011;61528;49.456;11.098;2024-01-10T06:46:53;13.87;;;6.47;;
18661;SDS011;61528;49.456;11.098;2024-01-10T06:49:18;13.60;;;5.87;;
18661;SDS011;61528;49.456;11.098;2024-01-10T06:51:44;12.87;;;5.63;;
18661;SDS011;61528;49.456;11.098;2024-01-10T06:54:10;15.97;;;6.77;;
18661;SDS011;61528;49.456;11.098;2024-01-10T06:56:36;14.93;;;6.73;;
18661;SDS011;61528;49.456;11.098;2024-01-10T06:59:02;13.13;;;6.97;;
18661;SDS011;61528;49.456;11.098;2024-01-10T07:01:28;14.27;;;6.70;;
18661;SDS011;61528;49.456;11.098;2024-01-10T07:03:54;13.20;;;6.23;;
18661;SDS011;61528;49.456;11.098;2024-01-10T07:06:20;15.30;;;6.97;;
18661;SDS011;61528;49.456;11.098;2024-01-10T07:08:48;15.43;;;7.03;;
18661;SDS011;61528;49.456;11.098;2024-01-10T07:11:15;13.50;;;6.50;;
18661;SDS011;61528;49.456;11.098;2024-01-10T07:13:42;17.17;;;7.07;;
18661;SDS011;61528;49.456;11.098;2024-01-10T07:16:08;14.87;;;6.50;;
18661;SDS011;61528;49.456;11.098;2024-01-10T07:18:35;19.70;;;7.73;;
18661;SDS011;61528;49.456;11.098;2024-01-10T07:21:01;14.03;;;6.27;;
18661;SDS011;61528;49.456;11.098;2024-01-10T07:23:27;15.23;;;6.73;;
18661;SDS011;61528;49.456;11.098;2024-01-10T07:25:52;18.67;;;7.33;;
18661;SDS011;61528;49.456;11.098;2024-01-10T07:28:19;19.07;;;7.67;;
18661;SDS011;61528;49.456;11.098;2024-01-10T07:30:45;16.90;;;7.30;;
18661;SDS011;61528;49.456;11.098;2024-01-10T07:33:12;20.73;;;8.40;;
18661;SDS011;61528;49.456;11.098;2024-01-10T07:35:38;17.53;;;7.37;;
18661;SDS011;61528;49.456;11.098;2024-01-10T07:38:04;19.87;;;7.60;;
18661;SDS011;61528;49.456;11.098;2024-01-10T07:40:33;18.03;;;7.70;;
18661;SDS011;61528;49.456;11.098;2024-01-10T07:43:00;14.77;;;6.30;;
18661;SDS011;61528;49.456;11.098;2024-01-10T07:45:26;12.93;;;6.40;;
18661;SDS011;61528;49.456;11.098;2024-01-10T07:47:52;13.23;;;6.20;;
18661;SDS011;61528;49.456;11.098;2024-01-10T07:50:18;15.37;;;7.33;;
18661;SDS011;61528;49.456;11.098;2024-01-10T07:52:45;17.97;;;7.10;;
18661;SDS011;61528;49.456;11.098;2024-01-10T07:55:13;16.93;;;6.93;;
18661;SDS011;61528;49.456;11.098;2024-01-10T07:57:39;15.13;;;6.37;;
18661;SDS011;61528;49.456;11.098;2024-01-10T08:00:07;13.83;;;6.33;;
18661;SDS011;61528;49.456;11.098;2024-01-10T08:02:38;16.30;;;7.20;;
18661;SDS011;61528;49.456;11.098;2024-01-10T08:05:05;14.70;;;6.43;;
18661;SDS011;61528;49.456;11.098;2024-01-10T08:07:37;14.33;;;6.53;;
18661;SDS011;61528;49.456;11.098;2024-01-10T08:10:06;16.00;;;6.90;;
18661;SDS011;61528;49.456;11.098;2024-01-10T08:12:35;18.70;;;7.67;;
18661;SDS011;61528;49.456;11.098;2024-01-10T08:15:04;15.83;;;7.20;;
18661;SDS011;61528;49.456;11.098;2024-01-10T08:17:33;19.03;;;7.93;;
18661;SDS011;61528;49.456;11.098;2024-01-10T08:19:59;18.40;;;7.53;;
18661;SDS011;61528;49.456;11.098;2024-01-10T08:22:29;17.07;;;7.27;;
18661;SDS011;61528;49.456;11.098;2024-01-10T08:24:55;17.07;;;6.97;;
18661;SDS011;61528;49.456;11.098;2024-01-10T08:27:21;13.10;;;6.83;;
18661;SDS011;61528;49.456;11.098;2024-01-10T08:29:48;15.77;;;6.27;;
18661;SDS011;61528;49.456;11.098;2024-01-10T08:32:13;14.40;;;6.77;;
18661;SDS011;61528;49.456;11.098;2024-01-10T08:34:40;16.43;;;7.37;;
18661;SDS011;61528;49.456;11.098;2024-01-10T08:37:06;14.80;;;7.13;;
18661;SDS011;61528;49.456;11.098;2024-01-10T08:39:32;15.63;;;7.13;;
18661;SDS011;61528;49.456;11.098;2024-01-10T08:41:58;15.23;;;7.40;;
18661;SDS011;61528;49.456;11.098;2024-01-10T08:44:24;19.67;;;7.47;;
18661;SDS011;61528;49.456;11.098;2024-01-10T08:46:50;16.37;;;7.27;;
18661;SDS011;61528;49.456;11.098;2024-01-10T08:49:17;15.20;;;7.17;;
18661;SDS011;61528;49.456;11.098;2024-01-10T08:51:43;15.73;;;7.67;;
18661;SDS011;61528;49.456;11.098;2024-01-10T08:54:11;14.13;;;6.73;;
18661;SDS011;61528;49.456;11.098;2024-01-10T08:56:45;16.23;;;7.60;;
18661;SDS011;61528;49.456;11.098;2024-01-10T08:59:11;15.43;;;6.97;;
18661;SDS011;61528;49.456;11.098;2024-01-10T09:01:37;16.20;;;7.53;;
18661;SDS011;61528;49.456;11.098;2024-01-10T09:04:07;17.87;;;7.27;;
18661;SDS011;61528;49.456;11.098;2024-01-10T09:06:33;14.83;;;7.63;;
18661;SDS011;61528;49.456;11.098;2024-01-10T09:09:02;17.33;;;7.73;;
18661;SDS011;61528;49.456;11.098;2024-01-10T09:11:28;14.63;;;6.27;;
18661;SDS011;61528;49.456;11.098;2024-01-10T09:13:54;15.70;;;7.23;;
18661;SDS011;61528;49.456;11.098;2024-01-10T09:16:20;16.83;;;7.47;;
18661;SDS011;61528;49.456;11.098;2024-01-10T09:18:46;16.63;;;8.00;;
18661;SDS011;61528;49.456;11.098;2024-01-10T09:21:13;18.40;;;8.20;;
18661;SDS011;61528;49.456;11.098;2024-01-10T09:23:39;17.93;;;8.30;;
18661;SDS011;61528;49.456;11.098;2024-01-10T09:26:05;14.23;;;7.80;;
18661;SDS011;61528;49.456;11.098;2024-01-10T09:28:34;14.77;;;8.03;;
18661;SDS011;61528;49.456;11.098;2024-01-10T09:30:59;13.80;;;6.70;;
18661;SDS011;61528;49.456;11.098;2024-01-10T09:33:25;16.80;;;7.63;;
18661;SDS011;61528;49.456;11.098;2024-01-10T09:35:51;14.20;;;7.27;;
18661;SDS011;61528;49.456;11.098;2024-01-10T09:38:17;16.33;;;8.30;;
18661;SDS011;61528;49.456;11.098;2024-01-10T09:40:43;14.37;;;7.53;;
18661;SDS011;61528;49.456;11.098;2024-01-10T09:43:09;15.60;;;7.60;;
18661;SDS011;61528;49.456;11.098;2024-01-10T09:45:36;15.93;;;7.90;;
18661;SDS011;61528;49.456;11.098;2024-01-10T09:48:11;16.33;;;7.23;;
18661;SDS011;61528;49.456;11.098;2024-01-10T09:50:40;12.20;;;6.27;;
18661;SDS011;61528;49.456;11.098;2024-01-10T09:53:07;15.20;;;7.20;;
18661;SDS011;61528;49.456;11.098;2024-01-10T09:55:36;14.90;;;7.80;;
18661;SDS011;61528;49.456;11.098;2024-01-10T09:58:04;16.50;;;7.70;;
18661;SDS011;61528;49.456;11.098;2024-01-10T10:00:31;18.97;;;7.97;;
18661;SDS011;61528;49.456;11.098;2024-01-10T10:03:00;16.73;;;7.77;;
18661;SDS011;61528;49.456;11.098;2024-01-10T10:05:29;16.37;;;7.67;;
18661;SDS011;61528;49.456;11.098;2024-01-10T10:07:55;21.67;;;8.63;;
18661;SDS011;61528;49.456;11.098;2024-01-10T10:10:23;15.97;;;7.43;;
18661;SDS011;61528;49.456;11.098;2024-01-10T10:12:49;14.47;;;7.30;;
18661;SDS011;61528;49.456;11.098;2024-01-10T10:15:19;14.53;;;8.10;;
18661;SDS011;61528;49.456;11.098;2024-01-10T10:17:47;16.47;;;8.37;;
18661;SDS011;61528;49.456;11.098;2024-01-10T10:20:17;14.63;;;8.07;;
18661;SDS011;61528;49.456;11.098;2024-01-10T10:23:08;15.73;;;8.63;;
18661;SDS011;61528;49.456;11.098;2024-01-10T10:25:43;16.37;;;7.67;;
18661;SDS011;61528;49.456;11.098;2024-01-10T10:28:11;17.07;;;8.13;;
18661;SDS011;61528;49.456;11.098;2024-01-10T10:30:37;17.93;;;8.57;;
18661;SDS011;61528;49.456;11.098;2024-01-10T10:33:03;15.83;;;8.13;;
18661;SDS011;61528;49.456;11.098;2024-01-10T10:35:33;16.93;;;8.30;;
18661;SDS011;61528;49.456;11.098;2024-01-10T10:37:59;12.43;;;7.43;;
18661;SDS011;61528;49.456;11.098;2024-01-10T10:40:25;21.07;;;8.37;;
18661;SDS011;61528;49.456;11.098;2024-01-10T10:42:55;17.17;;;8.67;;
18661;SDS011;61528;49.456;11.098;2024-01-10T10:45:22;18.43;;;8.63;;
18661;SDS011;61528;49.456;11.098;2024-01-10T10:48:01;15.93;;;7.37;;
18661;SDS011;61528;49.456;11.098;2024-01-10T10:50:28;17.27;;;8.03;;
18661;SDS011;61528;49.456;11.098;2024-01-10T10:52:58;16.57;;;8.50;;
18661;SDS011;61528;49.456;11.098;2024-01-10T10:55:26;13.50;;;7.30;;
18661;SDS011;61528;49.456;11.098;2024-01-10T10:57:53;18.17;;;8.73;;
18661;SDS011;61528;49.456;11.098;2024-01-10T11:00:21;17.20;;;8.13;;
18661;SDS011;61528;49.456;11.098;2024-01-10T11:02:55;16.20;;;8.40;;
18661;SDS011;61528;49.456;11.098;2024-01-10T11:05:22;14.03;;;7.50;;
18661;SDS011;61528;49.456;11.098;2024-01-10T11:07:49;21.70;;;8.77;;
18661;SDS011;61528;49.456;11.098;2024-01-10T11:10:18;14.63;;;7.90;;
18661;SDS011;61528;49.456;11.098;2024-01-10T11:13:07;15.47;;;7.67;;
18661;SDS011;61528;49.456;11.098;2024-01-10T11:18:40;17.77;;;7.83;;
18661;SDS011;61528;49.456;11.098;2024-01-10T11:21:27;13.93;;;7.17;;
18661;SDS011;61528;49.456;11.098;2024-01-10T11:24:22;18.57;;;8.40;;
18661;SDS011;61528;49.456;11.098;2024-01-10T11:26:49;15.13;;;7.47;;
18661;SDS011;61528;49.456;11.098;2024-01-10T11:29:15;14.73;;;7.37;;
18661;SDS011;61528;49.456;11.098;2024-01-10T11:31:41;17.10;;;7.50;;
18661;SDS011;61528;49.456;11.098;2024-01-10T11:34:15;14.27;;;7.83;;
18661;SDS011;61528;49.456;11.098;2024-01-10T11:36:47;14.50;;;7.73;;
18661;SDS011;61528;49.456;11.098;2024-01-10T11:39:27;15.60;;;7.87;;
18661;SDS011;61528;49.456;11.098;2024-01-10T11:41:53;19.27;;;8.00;;
18661;SDS011;61528;49.456;11.098;2024-01-10T11:44:28;15.03;;;7.70;;
18661;SDS011;61528;49.456;11.098;2024-01-10T11:46:56;15.63;;;8.03;;
18661;SDS011;61528;49.456;11.098;2024-01-10T11:49:23;15.17;;;7.97;;
18661;SDS011;61528;49.456;11.098;2024-01-10T11:51:54;14.53;;;7.77;;
18661;SDS011;61528;49.456;11.098;2024-01-10T11:54:34;15.43;;;7.87;;
18661;SDS011;61528;49.456;11.098;2024-01-10T11:57:01;15.23;;;8.23;;
18661;SDS011;61528;49.456;11.098;2024-01-10T11:59:28;17.60;;;8.23;;
18661;SDS011;61528;49.456;11.098;2024-01-10T12:01:56;13.77;;;8.13;;
18661;SDS011;61528;49.456;11.098;2024-01-10T12:04:23;15.33;;;8.40;;
18661;SDS011;61528;49.456;11.098;2024-01-10T12:06:56;14.33;;;8.13;;
18661;SDS011;61528;49.456;11.098;2024-01-10T12:09:22;15.87;;;8.87;;
18661;SDS011;61528;49.456;11.098;2024-01-10T12:11:50;14.37;;;7.90;;
18661;SDS011;61528;49.456;11.098;2024-01-10T12:14:16;14.73;;;8.67;;
18661;SDS011;61528;49.456;11.098;2024-01-10T12:16:42;14.37;;;8.13;;
18661;SDS011;61528;49.456;11.098;2024-01-10T12:19:08;15.00;;;7.90;;
18661;SDS011;61528;49.456;11.098;2024-01-10T12:21:35;15.37;;;8.07;;
18661;SDS011;61528;49.456;11.098;2024-01-10T12:24:03;15.93;;;8.27;;
18661;SDS011;61528;49.456;11.098;2024-01-10T12:26:30;14.10;;;8.60;;
18661;SDS011;61528;49.456;11.098;2024-01-10T12:28:59;15.37;;;9.07;;
18661;SDS011;61528;49.456;11.098;2024-01-10T12:31:29;13.17;;;8.50;;
18661;SDS011;61528;49.456;11.098;2024-01-10T12:33:56;16.47;;;8.63;;
18661;SDS011;61528;49.456;11.098;2024-01-10T12:36:22;14.17;;;9.20;;
18661;SDS011;61528;49.456;11.098;2024-01-10T12:38:49;13.37;;;8.97;;
18661;SDS011;61528;49.456;11.098;2024-01-10T12:41:16;14.50;;;8.90;;
18661;SDS011;61528;49.456;11.098;2024-01-10T12:43:43;14.80;;;9.63;;
18661;SDS011;61528;49.456;11.098;2024-01-10T12:46:10;14.57;;;9.23;;
18661;SDS011;61528;49.456;11.098;2024-01-10T12:48:37;13.27;;;9.27;;
18661;SDS011;61528;49.456;11.098;2024-01-10T12:51:06;15.33;;;9.93;;
18661;SDS011;61528;49.456;11.098;2024-01-10T12:53:37;14.67;;;9.63;;
18661;SDS011;61528;49.456;11.098;2024-01-10T12:56:03;16.30;;;10.00;;
18661;SDS011;61528;49.456;11.098;2024-01-10T12:58:30;13.73;;;9.83;;
18661;SDS011;61528;49.456;11.098;2024-01-10T13:00:56;14.00;;;9.43;;
18661;SDS011;61528;49.456;11.098;2024-01-10T13:03:23;15.80;;;10.27;;
18661;SDS011;61528;49.456;11.098;2024-01-10T13:05:52;13.43;;;9.87;;
18661;SDS011;61528;49.456;11.098;2024-01-10T13:08:19;14.33;;;10.33;;
18661;SDS011;61528;49.456;11.098;2024-01-10T13:10:46;15.80;;;9.87;;
18661;SDS011;61528;49.456;11.098;2024-01-10T13:13:12;13.13;;;9.73;;
18661;SDS011;61528;49.456;11.098;2024-01-10T13:15:40;12.67;;;8.97;;
18661;SDS011;61528;49.456;11.098;2024-01-10T13:18:07;15.10;;;10.07;;
18661;SDS011;61528;49.456;11.098;2024-01-10T13:20:38;14.03;;;10.00;;
18661;SDS011;61528;49.456;11.098;2024-01-10T13:23:04;13.87;;;10.60;;
18661;SDS011;61528;49.456;11.098;2024-01-10T13:25:31;14.50;;;10.03;;
18661;SDS011;61528;49.456;11.098;2024-01-10T13:27:58;12.60;;;9.77;;
18661;SDS011;61528;49.456;11.098;2024-01-10T13:30:28;13.43;;;9.93;;
18661;SDS011;61528;49.456;11.098;2024-01-10T13:32:55;13.20;;;9.77;;
18661;SDS011;61528;49.456;11.098;2024-01-10T13:35:23;13.47;;;10.00;;
18661;SDS011;61528;49.456;11.098;2024-01-10T13:37:49;14.50;;;9.80;;
18661;SDS011;61528;49.456;11.098;2024-01-10T13:40:16;15.43;;;10.13;;
18661;SDS011;61528;49.456;11.098;2024-01-10T13:42:49;14.10;;;9.57;;
18661;SDS011;61528;49.456;11.098;2024-01-10T13:45:15;14.07;;;9.43;;
18661;SDS011;61528;49.456;11.098;2024-01-10T13:47:42;13.50;;;10.07;;
18661;SDS011;61528;49.456;11.098;2024-01-10T13:50:08;13.30;;;9.37;;
18661;SDS011;61528;49.456;11.098;2024-01-10T13:52:35;15.47;;;9.40;;
18661;SDS011;61528;49.456;11.098;2024-01-10T13:55:02;13.87;;;9.70;;
18661;SDS011;61528;49.456;11.098;2024-01-10T13:57:30;13.83;;;9.90;;
18661;SDS011;61528;49.456;11.098;2024-01-10T13:59:57;13.93;;;9.40;;
18661;SDS011;61528;49.456;11.098;2024-01-10T14:02:24;14.43;;;9.07;;
18661;SDS011;61528;49.456;11.098;2024-01-10T14:04:50;13.60;;;9.83;;
18661;SDS011;61528;49.456;11.098;2024-01-10T14:07:17;14.27;;;9.60;;
18661;SDS011;61528;49.456;11.098;2024-01-10T14:09:43;15.07;;;9.07;;
18661;SDS011;61528;49.456;11.098;2024-01-10T14:12:10;15.37;;;10.00;;
18661;SDS011;61528;49.456;11.098;2024-01-10T14:14:37;14.60;;;9.60;;
18661;SDS011;61528;49.456;11.098;2024-01-10T14:17:03;14.10;;;9.30;;
18661;SDS011;61528;49.456;11.098;2024-01-10T14:19:29;14.47;;;8.83;;
18661;SDS011;61528;49.456;11.098;2024-01-10T14:21:55;14.07;;;8.50;;
18661;SDS011;61528;49.456;11.098;2024-01-10T14:24:21;17.47;;;9.73;;